Time;durP1;ratioP1;P1;durP2;ratioP2;P2;SDS_P1;SDS_P2;PMS_P1;PMS_P2;Temp;Humidity;BMP_temperature;BMP_pressure;BME280_temperature;BME280_humidity;BME280_pressure;Samples;Min_cycle;Max_cycle;Signal;HPM_P1;HPM_P2
2023/08/19 00:02:06;;;;;;;13.05;11.35;;;23.00;99.90;;;;;;5033929;28;20728;-73
2023/08/19 00:04:51;;;;;;;12.70;11.55;;;23.00;99.90;;;;;;5039725;28;20269;-73
2023/08/19 00:07:35;;;;;;;14.80;12.05;;;23.00;99.90;;;;;;5046696;28;20241;-73
2023/08/19 00:10:20;;;;;;;12.93;11.68;;;22.90;99.90;;;;;;5033020;28;20257;-75
2023/08/19 00:13:04;;;;;;;13.55;12.13;;;22.90;99.90;;;;;;5035220;28;20194;-74
2023/08/19 00:15:49;;;;;;;12.90;11.57;;;22.90;99.90;;;;;;5035675;28;20616;-74
2023/08/19 00:18:33;;;;;;;13.73;12.23;;;22.90;99.90;;;;;;5040392;28;20677;-75
2023/08/19 00:21:18;;;;;;;13.93;12.23;;;22.80;99.90;;;;;;5040122;28;20241;-73
2023/08/19 00:24:02;;;;;;;15.73;13.10;;;22.80;99.90;;;;;;5029010;28;20244;-73
2023/08/19 00:26:46;;;;;;;13.45;12.07;;;22.70;99.90;;;;;;5031381;28;20186;-71
2023/08/19 00:29:30;;;;;;;14.48;13.18;;;22.70;99.90;;;;;;5034152;28;20318;-74
2023/08/19 00:32:15;;;;;;;14.88;12.93;;;22.60;99.90;;;;;;5031423;28;20285;-74
2023/08/19 00:34:59;;;;;;;14.40;13.00;;;22.60;99.90;;;;;;5039480;28;20257;-73
2023/08/19 00:37:44;;;;;;;14.98;13.32;;;22.60;99.90;;;;;;5052315;28;20278;-71
2023/08/19 00:40:28;;;;;;;14.70;13.23;;;22.60;99.90;;;;;;5037237;28;20226;-73
2023/08/19 00:43:12;;;;;;;16.05;13.68;;;22.60;99.90;;;;;;5042455;28;20197;-74
2023/08/19 00:45:57;;;;;;;14.93;13.35;;;22.50;99.90;;;;;;5038430;28;20187;-71
2023/08/19 00:48:42;;;;;;;15.02;13.63;;;22.50;99.90;;;;;;5049481;28;20186;-76
2023/08/19 00:51:26;;;;;;;14.25;12.98;;;22.50;99.90;;;;;;5038022;28;20211;-72
2023/08/19 00:54:11;;;;;;;15.10;13.50;;;22.50;99.90;;;;;;5042835;28;20576;-73
2023/08/19 00:56:55;;;;;;;16.35;14.75;;;22.50;99.90;;;;;;5036863;28;20226;-73
2023/08/19 00:59:40;;;;;;;15.98;14.38;;;22.40;99.90;;;;;;5038991;28;20317;-72
2023/08/19 01:02:24;;;;;;;15.10;13.60;;;22.40;99.90;;;;;;5036345;28;20242;-73
2023/08/19 01:05:09;;;;;;;15.57;14.02;;;22.40;99.90;;;;;;5040616;28;20189;-71
2023/08/19 01:07:58;;;;;;;15.30;13.75;;;22.40;99.90;;;;;;5040093;28;20190;-73
2023/08/19 01:10:58;;;;;;;16.17;14.57;;;22.30;99.90;;;;;;5038428;28;20249;-74
2023/08/19 01:13:53;;;;;;;16.10;14.40;;;22.30;99.90;;;;;;5048167;28;20253;-74
2023/08/19 01:16:41;;;;;;;16.15;14.32;;;22.30;99.90;;;;;;5036725;28;20221;-74
2023/08/19 01:19:30;;;;;;;16.52;14.00;;;22.20;99.90;;;;;;5041947;28;20186;-74
2023/08/19 01:22:21;;;;;;;15.77;14.18;;;22.20;99.90;;;;;;5044133;28;20211;-74
2023/08/19 01:25:06;;;;;;;16.55;14.68;;;22.20;99.90;;;;;;5050535;28;20195;-76
2023/08/19 01:27:51;;;;;;;16.80;14.35;;;22.20;99.90;;;;;;5036581;28;20191;-76
2023/08/19 01:30:36;;;;;;;16.80;15.15;;;22.10;99.90;;;;;;5051218;28;20678;-73
2023/08/19 01:33:21;;;;;;;15.85;14.15;;;22.10;99.90;;;;;;5041909;28;20211;-74
2023/08/19 01:36:20;;;;;;;15.82;14.30;;;22.10;99.90;;;;;;5040496;28;20667;-74
2023/08/19 01:39:09;;;;;;;16.75;15.07;;;22.10;99.90;;;;;;5037448;28;20273;-75
2023/08/19 01:41:55;;;;;;;15.65;13.93;;;22.00;99.90;;;;;;5047349;28;20223;-71
2023/08/19 01:44:39;;;;;;;15.77;14.15;;;22.00;99.90;;;;;;5038707;28;20210;-72
2023/08/19 01:47:23;;;;;;;15.55;13.95;;;22.00;99.90;;;;;;5039555;28;20206;-74
2023/08/19 01:50:07;;;;;;;15.40;13.75;;;22.00;99.90;;;;;;5037081;28;20290;-73
2023/08/19 01:52:52;;;;;;;15.35;13.85;;;22.00;99.90;;;;;;5052473;28;20224;-73
2023/08/19 01:55:37;;;;;;;14.95;13.55;;;22.00;99.90;;;;;;5039705;28;20193;-72
2023/08/19 01:58:21;;;;;;;15.82;14.32;;;21.90;99.90;;;;;;5036180;28;20272;-74
2023/08/19 02:01:11;;;;;;;17.25;14.05;;;21.90;99.90;;;;;;5035840;28;20226;-75
2023/08/19 02:03:55;;;;;;;15.77;14.23;;;21.90;99.90;;;;;;5029495;28;20192;-74
2023/08/19 02:06:39;;;;;;;16.50;15.00;;;21.90;99.90;;;;;;5043704;28;20194;-72
2023/08/19 02:09:23;;;;;;;17.98;14.30;;;21.90;99.90;;;;;;5034261;28;20271;-74
2023/08/19 02:12:07;;;;;;;16.63;15.05;;;21.90;99.90;;;;;;5035146;28;20257;-74
2023/08/19 02:14:52;;;;;;;16.50;14.80;;;21.90;99.90;;;;;;5038448;28;20194;-73
2023/08/19 02:17:36;;;;;;;16.52;14.90;;;21.90;99.90;;;;;;5036885;28;20206;-73
2023/08/19 02:20:20;;;;;;;15.88;14.20;;;21.80;99.90;;;;;;5038202;28;20249;-75
2023/08/19 02:23:04;;;;;;;15.75;14.25;;;21.80;99.90;;;;;;5038624;28;20186;-75
2023/08/19 02:25:51;;;;;;;15.57;14.15;;;21.80;99.90;;;;;;5029692;28;20666;-72
2023/08/19 02:28:36;;;;;;;15.57;13.98;;;21.70;99.90;;;;;;5039158;28;20186;-74
2023/08/19 02:31:20;;;;;;;16.50;14.90;;;21.80;99.90;;;;;;5040710;28;20276;-73
2023/08/19 02:34:05;;;;;;;18.85;15.70;;;21.70;99.90;;;;;;5028429;28;20266;-73
2023/08/19 02:36:49;;;;;;;16.70;14.95;;;21.70;99.90;;;;;;5037109;28;20198;-72
2023/08/19 02:39:33;;;;;;;15.88;14.38;;;21.70;99.90;;;;;;5032309;28;20209;-74
2023/08/19 02:42:17;;;;;;;16.73;15.13;;;21.60;99.90;;;;;;5034533;28;20254;-72
2023/08/19 02:45:02;;;;;;;15.60;14.10;;;21.70;99.90;;;;;;5041937;28;20233;-72
2023/08/19 02:47:47;;;;;;;16.63;14.88;;;21.60;99.90;;;;;;5041633;28;20214;-71
2023/08/19 02:50:31;;;;;;;17.15;15.60;;;21.60;99.90;;;;;;5037854;28;20206;-73
2023/08/19 02:53:15;;;;;;;16.92;15.25;;;21.50;99.90;;;;;;5039713;28;20198;-73
2023/08/19 02:55:59;;;;;;;17.95;15.43;;;21.60;99.90;;;;;;5035269;28;20282;-71
2023/08/19 02:58:44;;;;;;;17.00;15.20;;;21.50;99.90;;;;;;5032901;28;20191;-73
2023/08/19 03:01:28;;;;;;;16.83;15.23;;;21.50;99.90;;;;;;5041212;28;20280;-71
2023/08/19 03:04:12;;;;;;;15.95;14.43;;;21.50;99.90;;;;;;5044125;28;20271;-73
2023/08/19 03:06:57;;;;;;;16.20;14.52;;;21.50;99.90;;;;;;5044797;28;20193;-72
2023/08/19 03:09:45;;;;;;;16.45;14.85;;;21.50;99.90;;;;;;5046658;28;20695;-72
2023/08/19 03:12:29;;;;;;;15.75;14.32;;;21.50;99.90;;;;;;5030667;28;20222;-74
2023/08/19 03:15:13;;;;;;;16.70;14.25;;;21.50;99.90;;;;;;5031475;28;20198;-73
2023/08/19 03:17:57;;;;;;;15.35;13.93;;;21.50;99.90;;;;;;5031762;28;20190;-73
2023/08/19 03:20:42;;;;;;;14.80;13.48;;;21.40;99.90;;;;;;5035832;28;20218;-73
2023/08/19 03:23:27;;;;;;;14.63;13.27;;;21.40;99.90;;;;;;5035856;28;20186;-73
2023/08/19 03:26:12;;;;;;;15.90;13.88;;;21.40;99.90;;;;;;5037084;28;20268;-75
2023/08/19 03:28:56;;;;;;;15.88;14.45;;;21.40;99.90;;;;;;5045112;28;20194;-75
2023/08/19 03:31:41;;;;;;;15.48;13.98;;;21.40;99.90;;;;;;5045738;28;20363;-73
2023/08/19 03:34:25;;;;;;;15.27;13.80;;;21.40;99.90;;;;;;5044320;28;20278;-73
2023/08/19 03:37:09;;;;;;;16.13;13.43;;;21.40;99.90;;;;;;5033910;28;20725;-73
2023/08/19 03:39:54;;;;;;;15.00;13.43;;;21.40;99.90;;;;;;5033489;28;20260;-74
2023/08/19 03:42:38;;;;;;;15.80;14.27;;;21.30;99.90;;;;;;5030707;28;20210;-74
2023/08/19 03:45:22;;;;;;;16.38;14.68;;;21.30;99.90;;;;;;5039060;28;20189;-74
2023/08/19 03:48:06;;;;;;;16.92;15.13;;;21.40;99.90;;;;;;5054461;28;20187;-73
2023/08/19 03:50:51;;;;;;;15.90;14.43;;;21.30;99.90;;;;;;5032748;28;20268;-73
2023/08/19 03:53:36;;;;;;;15.88;14.27;;;21.30;99.90;;;;;;5035433;28;20217;-74
2023/08/19 03:56:20;;;;;;;15.73;14.13;;;21.30;99.90;;;;;;5037896;28;20194;-73
2023/08/19 03:59:04;;;;;;;16.98;13.98;;;21.30;99.90;;;;;;5052160;28;20249;-74
2023/08/19 04:01:48;;;;;;;20.70;14.77;;;21.20;99.90;;;;;;5031167;28;20221;-73
2023/08/19 04:04:35;;;;;;;17.35;14.38;;;21.20;99.90;;;;;;5037569;28;20205;-73
2023/08/19 04:07:19;;;;;;;17.77;15.75;;;21.20;99.90;;;;;;5041919;28;20194;-71
2023/08/19 04:10:04;;;;;;;18.15;15.60;;;21.20;99.90;;;;;;5045280;28;20200;-72
2023/08/19 04:12:48;;;;;;;17.58;15.80;;;21.20;99.90;;;;;;5047998;28;20215;-70
2023/08/19 04:15:33;;;;;;;18.50;16.58;;;21.10;99.90;;;;;;5039901;28;20236;-73
2023/08/19 04:18:18;;;;;;;17.13;15.35;;;21.10;99.90;;;;;;5039568;28;20226;-73
2023/08/19 04:21:06;;;;;;;17.25;15.50;;;21.10;99.90;;;;;;5035339;28;20315;-74
2023/08/19 04:23:50;;;;;;;18.35;16.52;;;21.10;99.90;;;;;;5049896;28;20230;-74
2023/08/19 04:26:35;;;;;;;18.40;16.50;;;21.00;99.90;;;;;;5034331;28;20187;-72
2023/08/19 04:29:18;;;;;;;18.23;16.05;;;21.00;99.90;;;;;;5042997;28;20190;-72
2023/08/19 04:32:03;;;;;;;17.27;15.07;;;21.00;99.90;;;;;;5038595;28;20272;-74
2023/08/19 04:34:48;;;;;;;17.88;16.02;;;21.00;99.90;;;;;;5046855;28;20225;-71
2023/08/19 04:37:32;;;;;;;18.92;16.92;;;21.00;99.90;;;;;;5051350;28;20205;-72
2023/08/19 04:40:16;;;;;;;19.17;16.33;;;21.00;99.90;;;;;;5037689;28;20760;-73
2023/08/19 04:43:00;;;;;;;18.70;16.15;;;20.90;99.90;;;;;;5048655;28;20190;-74
2023/08/19 04:45:44;;;;;;;17.90;15.85;;;21.00;99.90;;;;;;5037358;28;20569;-72
2023/08/19 04:48:28;;;;;;;19.67;16.83;;;20.90;99.90;;;;;;5042776;28;20195;-71
2023/08/19 04:51:12;;;;;;;18.83;17.02;;;20.90;99.90;;;;;;5037302;28;20262;-72
2023/08/19 04:53:56;;;;;;;19.35;17.15;;;20.90;99.90;;;;;;5050051;28;20210;-71
2023/08/19 04:56:40;;;;;;;20.95;18.52;;;20.90;99.90;;;;;;5036407;28;20223;-72
2023/08/19 04:59:24;;;;;;;18.73;16.88;;;20.90;99.90;;;;;;5052004;28;20327;-71
2023/08/19 05:02:08;;;;;;;18.30;16.42;;;20.90;99.90;;;;;;5037340;28;20230;-74
2023/08/19 05:04:52;;;;;;;19.75;17.70;;;20.80;99.90;;;;;;5035103;28;20187;-71
2023/08/19 05:07:36;;;;;;;19.17;17.05;;;20.80;99.90;;;;;;5033435;28;20339;-71
2023/08/19 05:10:20;;;;;;;24.48;17.88;;;20.80;99.90;;;;;;5038213;28;20214;-73
2023/08/19 05:13:04;;;;;;;20.00;17.80;;;20.80;99.90;;;;;;5036122;28;20202;-73
2023/08/19 05:15:48;;;;;;;20.38;18.10;;;20.80;99.90;;;;;;5031839;28;20211;-73
2023/08/19 05:18:33;;;;;;;19.75;17.75;;;20.80;99.90;;;;;;5054938;28;20204;-73
2023/08/19 05:21:17;;;;;;;18.90;16.98;;;20.90;99.90;;;;;;5035737;28;20833;-71
2023/08/19 05:24:03;;;;;;;20.20;18.17;;;20.90;99.90;;;;;;5032303;28;20210;-73
2023/08/19 05:26:47;;;;;;;22.63;18.08;;;20.90;99.90;;;;;;5033548;28;20221;-72
2023/08/19 05:29:31;;;;;;;19.20;17.00;;;21.00;99.90;;;;;;5052381;28;20198;-72
2023/08/19 05:32:15;;;;;;;20.63;18.33;;;20.90;99.90;;;;;;5028974;28;20296;-71
2023/08/19 05:34:59;;;;;;;20.10;17.27;;;21.00;99.90;;;;;;5046050;28;20194;-73
2023/08/19 05:37:43;;;;;;;20.85;17.38;;;21.00;99.90;;;;;;5052043;28;20301;-71
2023/08/19 05:40:27;;;;;;;20.58;18.45;;;21.00;99.90;;;;;;5035659;28;20210;-73
2023/08/19 05:43:12;;;;;;;23.02;18.70;;;21.10;99.90;;;;;;5036623;28;20274;-75
2023/08/19 05:45:58;;;;;;;19.38;17.38;;;21.10;99.90;;;;;;5032905;28;20274;-72
2023/08/19 05:48:42;;;;;;;20.23;18.13;;;21.20;99.90;;;;;;5036132;28;20186;-73
2023/08/19 05:51:27;;;;;;;24.75;17.48;;;21.20;99.90;;;;;;5036816;28;20222;-71
2023/08/19 05:54:12;;;;;;;19.77;16.77;;;21.30;99.90;;;;;;5032671;28;20321;-71
2023/08/19 05:56:56;;;;;;;19.10;17.20;;;21.30;99.90;;;;;;5051181;28;20186;-74
2023/08/19 05:59:40;;;;;;;20.33;17.67;;;21.40;99.90;;;;;;5040967;28;20739;-72
2023/08/19 06:02:24;;;;;;;20.67;17.65;;;21.40;99.90;;;;;;5038938;28;20222;-70
2023/08/19 06:05:08;;;;;;;22.75;18.60;;;21.40;99.90;;;;;;5033352;28;20191;-73
2023/08/19 06:07:53;;;;;;;19.50;17.33;;;21.50;99.90;;;;;;5055966;28;20236;-72
2023/08/19 06:10:43;;;;;;;20.00;17.52;;;21.50;99.90;;;;;;5035020;28;20235;-72
2023/08/19 06:13:28;;;;;;;20.58;17.70;;;21.60;99.90;;;;;;5046295;28;20191;-70
2023/08/19 06:16:12;;;;;;;19.60;17.45;;;21.70;99.90;;;;;;5056998;28;20210;-71
2023/08/19 06:18:56;;;;;;;24.25;17.75;;;21.70;99.90;;;;;;5039427;28;20602;-71
2023/08/19 06:21:40;;;;;;;20.98;17.10;;;21.80;99.90;;;;;;5048324;28;20598;-71
2023/08/19 06:24:27;;;;;;;19.92;16.85;;;21.80;99.90;;;;;;5050122;28;20182;-71
2023/08/19 06:27:11;;;;;;;21.67;17.17;;;21.90;99.90;;;;;;5031218;28;20616;-78
2023/08/19 06:29:55;;;;;;;25.65;18.77;;;22.00;99.90;;;;;;5033250;28;20263;-75
2023/08/19 06:32:39;;;;;;;20.90;17.42;;;22.00;99.90;;;;;;5034581;28;20366;-76
2023/08/19 06:35:24;;;;;;;28.05;17.48;;;22.10;99.90;;;;;;5053811;28;20185;-77
2023/08/19 06:38:18;;;;;;;18.17;16.30;;;22.10;99.90;;;;;;5042831;28;20200;-77
2023/08/19 06:41:10;;;;;;;20.92;16.65;;;22.20;99.90;;;;;;5037782;28;20673;-77
2023/08/19 06:43:57;;;;;;;20.75;15.80;;;22.30;99.90;;;;;;5059295;28;20182;-80
2023/08/19 06:46:43;;;;;;;18.55;15.80;;;22.40;99.90;;;;;;5056577;28;20206;-77
2023/08/19 06:49:27;;;;;;;20.05;16.05;;;;;;;;;;5035681;28;20230;-84
2023/08/19 06:52:12;;;;;;;18.75;15.55;;;22.50;99.90;;;;;;5054548;28;20297;-80
2023/08/19 06:54:57;;;;;;;34.53;15.98;;;22.80;99.90;;;;;;5050435;28;20195;-75
2023/08/19 06:57:52;;;;;;;24.98;13.63;;;23.00;99.90;;;;;;5048380;28;20193;-83
2023/08/19 07:00:37;;;;;;;24.27;14.93;;;23.40;99.90;;;;;;5049835;28;20225;-80
2023/08/19 07:03:22;;;;;;;15.98;14.20;;;23.60;99.90;;;;;;5036909;28;20199;-85
2023/08/19 07:06:07;;;;;;;17.98;13.75;;;23.70;99.90;;;;;;5050154;28;20237;-81
2023/08/19 07:08:52;;;;;;;16.85;13.50;;;24.30;99.90;;;;;;5049556;28;20735;-81
2023/08/19 07:11:36;;;;;;;15.80;13.77;;;24.50;99.90;;;;;;5030754;28;20222;-80
2023/08/19 07:14:22;;;;;;;15.60;12.65;;;24.80;99.90;;;;;;5038016;28;20199;-80
2023/08/19 07:17:07;;;;;;;13.15;11.73;;;25.10;99.90;;;;;;5047367;28;20210;-80
2023/08/19 07:19:54;;;;;;;14.40;12.23;;;25.30;99.90;;;;;;5031874;28;20234;-82
2023/08/19 07:22:39;;;;;;;13.15;11.85;;;25.50;99.90;;;;;;5046591;28;20254;-81
2023/08/19 07:25:23;;;;;;;12.48;11.18;;;25.60;99.90;;;;;;5038515;28;20264;-81
2023/08/19 07:28:11;;;;;;;15.32;11.57;;;25.80;99.90;;;;;;5041310;28;20240;-80
2023/08/19 07:30:55;;;;;;;11.88;10.60;;;25.90;99.90;;;;;;5036825;28;20704;-82
2023/08/19 07:33:40;;;;;;;12.25;10.95;;;26.20;99.90;;;;;;5057090;28;20190;-82
2023/08/19 07:36:25;;;;;;;13.23;10.63;;;26.30;99.90;;;;;;5038312;28;20206;-84
2023/08/19 07:39:09;;;;;;;15.93;11.40;;;26.40;99.90;;;;;;5035606;28;20210;-81
2023/08/19 07:41:53;;;;;;;11.88;10.55;;;26.40;99.90;;;;;;5050288;28;20206;-75
2023/08/19 07:44:37;;;;;;;11.57;9.68;;;27.20;99.90;;;;;;5047408;28;20270;-79
2023/08/19 07:47:23;;;;;;;12.70;10.00;;;27.00;99.90;;;;;;5050522;28;20194;-80
2023/08/19 07:50:08;;;;;;;11.98;10.65;;;26.90;99.90;;;;;;5028945;28;20654;-80
2023/08/19 07:52:52;;;;;;;13.63;9.55;;;26.70;99.90;;;;;;5037184;28;20630;-80
2023/08/19 07:55:36;;;;;;;11.65;10.05;;;27.20;99.90;;;;;;5028825;28;20195;-78
2023/08/19 07:58:20;;;;;;;13.38;10.18;;;27.30;99.90;;;;;;5040339;28;20331;-77
2023/08/19 08:01:05;;;;;;;10.45;8.80;;;27.40;99.90;;;;;;5032718;28;20351;-78
2023/08/19 08:03:49;;;;;;;12.38;9.70;;;27.50;99.90;;;;;;5040725;28;20232;-79
2023/08/19 08:06:33;;;;;;;13.63;9.23;;;27.30;99.90;;;;;;5032725;28;20222;-81
2023/08/19 08:09:19;;;;;;;13.15;9.65;;;;;;;;;;5030939;28;20233;-78
2023/08/19 08:12:04;;;;;;;10.93;9.20;;;;;;;;;;5057337;28;20222;-80
2023/08/19 08:14:48;;;;;;;13.95;8.98;;;;;;;;;;5052745;28;20198;-80
2023/08/19 08:17:33;;;;;;;12.20;9.05;;;;;;;;;;5056847;28;20213;-78
2023/08/19 08:20:18;;;;;;;10.35;8.68;;;;;;;;;;5047937;28;20226;-80
2023/08/19 08:23:03;;;;;;;12.07;8.60;;;;;;;;;;5041288;28;20194;-78
2023/08/19 08:25:47;;;;;;;10.18;9.02;;;;;;;;;;5048844;28;20234;-81
2023/08/19 08:28:32;;;;;;;9.95;8.40;;;;;;;;;;5051250;28;20226;-85
2023/08/19 08:31:17;;;;;;;9.80;8.50;;;;;;;;;;5059183;28;20217;-85
2023/08/19 08:34:01;;;;;;;10.30;8.25;;;;;;;;;;5050652;28;20645;-84
2023/08/19 08:36:46;;;;;;;12.38;8.23;;;;;;;;;;5056914;28;20669;-81
2023/08/19 08:39:30;;;;;;;8.77;7.97;;;;;;;;;;5037670;28;20191;-83
2023/08/19 08:42:15;;;;;;;8.68;7.88;;;;;;;;;;5052254;28;20238;-84
2023/08/19 08:45:00;;;;;;;8.25;7.55;;;;;;;;;;5048617;28;20178;-74
2023/08/19 08:47:45;;;;;;;10.15;8.38;;;;;;;;;;5033484;28;20186;-71
2023/08/19 08:50:29;;;;;;;8.82;8.07;;;;;;;;;;5037249;28;20241;-75
2023/08/19 08:53:14;;;;;;;10.30;7.82;;;;;;;;;;5028091;28;20187;-73
2023/08/19 08:55:59;;;;;;;8.35;7.45;;;;;;;;;;5037548;28;20267;-74
2023/08/19 08:58:44;;;;;;;9.93;8.38;;;;;;;;;;5052719;28;20213;-75
2023/08/19 09:01:29;;;;;;;9.82;8.38;;;;;;;;;;5057721;28;20284;-72
2023/08/19 09:04:15;;;;;;;9.63;8.63;;;;;;;;;;5047399;28;20299;-74
2023/08/19 09:07:03;;;;;;;7.88;7.18;;;;;;;;;;5037715;28;20191;-73
2023/08/19 09:09:52;;;;;;;7.93;7.18;;;;;;;;;;5052413;28;20186;-73
2023/08/19 09:12:38;;;;;;;8.45;7.50;;;;;;;;;;5049965;28;20214;-73
2023/08/19 09:15:27;;;;;;;8.38;7.30;;;;;;;;;;5052191;28;20185;-73
2023/08/19 09:18:11;;;;;;;8.77;7.25;;;;;;;;;;5041466;28;20179;-75
2023/08/19 09:20:57;;;;;;;9.73;6.97;;;;;;;;;;5040937;28;20215;-76
2023/08/19 09:23:41;;;;;;;9.38;7.13;;;;;;;;;;5053278;28;20210;-74
2023/08/19 09:26:28;;;;;;;9.32;7.72;;;27.50;99.90;;;;;;5038602;28;20558;-75
2023/08/19 09:29:14;;;;;;;14.25;7.30;;;;;;;;;;5024085;28;20273;-73
2023/08/19 09:32:01;;;;;;;8.65;7.43;;;27.30;99.90;;;;;;5056759;28;20361;-74
2023/08/19 09:35:00;;;;;;;8.32;7.20;;;;;;;;;;5034675;28;20203;-73
2023/08/19 09:37:47;;;;;;;8.80;7.05;;;27.80;99.90;;;;;;5044826;28;20214;-74
2023/08/19 09:40:31;;;;;;;8.50;7.28;;;27.80;99.90;;;;;;5045211;28;20198;-73
2023/08/19 09:43:15;;;;;;;7.95;7.15;;;27.90;99.90;;;;;;5037579;28;20228;-74
2023/08/19 09:46:00;;;;;;;7.45;6.75;;;27.90;99.90;;;;;;5039888;28;20191;-73
2023/08/19 09:48:53;;;;;;;7.75;7.05;;;;;;;;;;5048175;28;20213;-73
2023/08/19 09:51:38;;;;;;;8.63;6.53;;;28.10;99.90;;;;;;5054184;28;20301;-73
2023/08/19 09:54:23;;;;;;;7.15;6.50;;;28.20;99.90;;;;;;5035763;28;20231;-73
2023/08/19 09:57:07;;;;;;;7.63;6.90;;;28.60;99.90;;;;;;5038247;28;20182;-73
2023/08/19 09:59:51;;;;;;;7.40;6.68;;;28.70;99.90;;;;;;5032084;28;20192;-73
2023/08/19 10:02:35;;;;;;;6.80;6.13;;;28.60;99.90;;;;;;5036927;28;20237;-72
2023/08/19 10:05:20;;;;;;;6.93;5.78;;;28.60;99.90;;;;;;5035525;28;20187;-74
2023/08/19 10:08:07;;;;;;;11.23;6.43;;;28.70;99.90;;;;;;5041279;28;20240;-72
2023/08/19 10:10:52;;;;;;;7.53;6.22;;;;;;;;;;5035926;28;20198;-75
2023/08/19 10:13:37;;;;;;;6.13;5.53;;;28.80;99.90;;;;;;5036690;28;20198;-73
2023/08/19 10:16:24;;;;;;;6.97;5.60;;;28.70;99.90;;;;;;5035141;28;20190;-74
2023/08/19 10:19:14;;;;;;;7.00;5.80;;;28.70;99.90;;;;;;5054010;28;20309;-74
2023/08/19 10:21:59;;;;;;;9.05;6.22;;;28.90;99.90;;;;;;5048796;28;20230;-74
2023/08/19 10:24:44;;;;;;;7.65;6.28;;;29.00;99.90;;;;;;5051601;28;20194;-74
2023/08/19 10:27:29;;;;;;;8.07;6.18;;;29.30;99.90;;;;;;5051028;28;20191;-73
2023/08/19 10:30:31;;;;;;;8.88;6.03;;;29.10;99.90;;;;;;5049915;28;20191;-73
2023/08/19 10:33:33;;;;;;;6.72;6.13;;;29.10;99.90;;;;;;5049100;28;20255;-74
2023/08/19 10:36:19;;;;;;;7.18;6.47;;;29.10;99.90;;;;;;5036502;28;20187;-74
2023/08/19 10:39:07;;;;;;;6.97;6.38;;;;;;;;;;5044880;28;20187;-74
2023/08/19 10:41:53;;;;;;;8.07;6.60;;;28.90;99.90;;;;;;5048974;28;20272;-74
2023/08/19 10:44:38;;;;;;;7.55;6.35;;;29.00;99.90;;;;;;5033693;28;20190;-73
2023/08/19 10:47:22;;;;;;;8.40;6.43;;;29.50;99.90;;;;;;5031626;28;20190;-74
2023/08/19 10:50:07;;;;;;;8.95;6.18;;;28.50;99.90;;;;;;5044378;28;20230;-74
2023/08/19 10:52:58;;;;;;;6.43;5.90;;;28.50;99.90;;;;;;5056162;28;20236;-73
2023/08/19 10:55:55;;;;;;;8.30;6.03;;;28.70;99.90;;;;;;5044886;28;20226;-73
2023/08/19 10:58:41;;;;;;;8.77;5.65;;;29.70;99.90;;;;;;5034843;28;20194;-74
2023/08/19 11:01:30;;;;;;;7.63;5.30;;;28.70;99.90;;;;;;5035199;28;20225;-74
2023/08/19 11:04:15;;;;;;;8.23;5.55;;;29.30;99.90;;;;;;5039272;28;20187;-74
2023/08/19 11:06:59;;;;;;;7.85;5.40;;;29.80;99.90;;;;;;5037828;28;20222;-72
2023/08/19 11:09:46;;;;;;;6.20;5.70;;;29.80;99.90;;;;;;5027391;28;20191;-73
2023/08/19 11:12:30;;;;;;;9.02;5.50;;;29.30;99.90;;;;;;5036879;28;20214;-74
2023/08/19 11:15:23;;;;;;;7.00;5.70;;;29.30;99.90;;;;;;5048940;28;20194;-74
2023/08/19 11:18:08;;;;;;;7.30;5.95;;;28.90;99.90;;;;;;5050012;28;20202;-75
2023/08/19 11:20:54;;;;;;;10.93;5.75;;;29.20;99.90;;;;;;5028888;28;20274;-76
2023/08/19 11:23:38;;;;;;;8.40;5.57;;;29.20;99.90;;;;;;5035324;28;20240;-76
2023/08/19 11:26:23;;;;;;;7.72;6.00;;;;;;;;;;5048107;28;20214;-75
2023/08/19 11:29:09;;;;;;;6.47;5.22;;;29.60;99.90;;;;;;5035837;28;20262;-74
2023/08/19 11:31:53;;;;;;;8.25;5.78;;;29.10;99.90;;;;;;5044824;28;20365;-73
2023/08/19 11:34:38;;;;;;;8.90;5.38;;;29.10;99.90;;;;;;5040872;28;20198;-73
2023/08/19 11:37:22;;;;;;;7.45;5.75;;;29.00;99.90;;;;;;5026180;28;20226;-76
2023/08/19 11:40:07;;;;;;;9.43;5.80;;;29.00;99.90;;;;;;5027266;28;20228;-75
2023/08/19 11:42:51;;;;;;;6.70;6.00;;;29.00;99.90;;;;;;5049315;28;20226;-75
2023/08/19 11:45:39;;;;;;;9.65;6.00;;;29.00;99.90;;;;;;5041653;28;20287;-74
2023/08/19 11:48:24;;;;;;;7.22;5.43;;;29.10;99.90;;;;;;5048158;28;20244;-74
2023/08/19 11:51:13;;;;;;;4.93;4.43;;;29.10;99.90;;;;;;5034579;28;20214;-75
2023/08/19 11:54:03;;;;;;;6.45;4.72;;;29.30;99.90;;;;;;5048428;28;20222;-75
2023/08/19 11:56:49;;;;;;;5.13;4.25;;;29.20;99.90;;;;;;5033803;28;20214;-75
2023/08/19 11:59:35;;;;;;;4.97;4.50;;;;;;;;;;5036453;28;20193;-75
2023/08/19 12:02:20;;;;;;;4.70;4.15;;;29.00;99.90;;;;;;5029553;28;20226;-75
2023/08/19 12:05:04;;;;;;;6.90;4.05;;;29.00;99.90;;;;;;5041721;28;20845;-72
2023/08/19 12:07:48;;;;;;;4.38;3.97;;;29.00;99.90;;;;;;5036631;28;20190;-75
2023/08/19 12:10:43;;;;;;;7.22;4.22;;;29.00;99.90;;;;;;5028783;28;20238;-73
2023/08/19 12:13:29;;;;;;;4.55;3.88;;;;;;;;;;5029042;28;20186;-73
2023/08/19 12:16:13;;;;;;;7.28;4.10;;;29.00;99.90;;;;;;5039272;28;20190;-73
2023/08/19 12:19:00;;;;;;;7.68;4.45;;;29.20;99.90;;;;;;5047340;28;20179;-73
2023/08/19 12:21:44;;;;;;;6.90;4.20;;;29.30;99.90;;;;;;5036032;28;20230;-72
2023/08/19 12:24:30;;;;;;;6.25;3.90;;;;;;;;;;5036029;28;20210;-73
2023/08/19 12:27:14;;;;;;;4.70;3.63;;;29.30;99.90;;;;;;5054913;28;20283;-73
2023/08/19 12:29:59;;;;;;;5.20;3.78;;;;;;;;;;5030829;28;20743;-74
2023/08/19 12:32:44;;;;;;;4.32;3.85;;;;;;;;;;5051567;28;20229;-73
2023/08/19 12:35:29;;;;;;;4.57;4.03;;;;;;;;;;5052204;28;20232;-74
2023/08/19 12:38:15;;;;;;;5.78;3.67;;;29.50;99.90;;;;;;5048150;28;20201;-72
2023/08/19 12:40:59;;;;;;;6.13;3.80;;;29.70;99.90;;;;;;5039317;28;20254;-73
2023/08/19 12:43:43;;;;;;;4.72;3.70;;;29.80;99.90;;;;;;5047669;28;20203;-72
2023/08/19 12:46:31;;;;;;;4.60;3.95;;;;;;;;;;5043908;28;20236;-73
2023/08/19 12:49:15;;;;;;;4.40;3.83;;;29.70;99.90;;;;;;5059813;28;20182;-74
2023/08/19 12:52:00;;;;;;;5.00;3.63;;;29.80;99.90;;;;;;5048121;28;20254;-72
2023/08/19 12:54:44;;;;;;;6.63;4.20;;;29.80;99.90;;;;;;5056117;28;20214;-73
2023/08/19 12:57:28;;;;;;;5.50;3.65;;;29.70;99.90;;;;;;5038524;28;20253;-74
2023/08/19 13:00:13;;;;;;;10.02;4.22;;;29.70;99.90;;;;;;5052337;28;20218;-74
2023/08/19 13:02:57;;;;;;;4.60;4.03;;;29.70;99.90;;;;;;5037109;28;20280;-75
2023/08/19 13:05:41;;;;;;;6.47;4.20;;;29.60;99.90;;;;;;5036679;28;20206;-74
2023/08/19 13:08:25;;;;;;;7.28;4.45;;;29.60;99.90;;;;;;5039878;28;20209;-74
2023/08/19 13:11:11;;;;;;;5.15;4.05;;;29.60;99.90;;;;;;5055395;28;20214;-74
2023/08/19 13:13:56;;;;;;;6.80;4.53;;;29.60;99.90;;;;;;5049813;28;20197;-74
2023/08/19 13:16:40;;;;;;;11.02;4.28;;;29.60;99.90;;;;;;5057809;28;20290;-75
2023/08/19 13:19:23;;;;;;;14.07;4.60;;;29.60;99.90;;;;;;5038687;28;20190;-74
2023/08/19 13:22:07;;;;;;;9.98;4.20;;;29.60;99.90;;;;;;5037822;28;20230;-74
2023/08/19 13:24:52;;;;;;;17.75;4.50;;;;;;;;;;5060303;28;20185;-73
2023/08/19 13:27:37;;;;;;;10.75;4.28;;;29.50;99.90;;;;;;5044894;28;20178;-75
2023/08/19 13:30:21;;;;;;;9.57;4.03;;;29.50;99.90;;;;;;5053254;28;20205;-74
2023/08/19 13:33:07;;;;;;;6.72;3.72;;;29.50;99.90;;;;;;5038434;28;20230;-74
2023/08/19 13:35:51;;;;;;;6.55;3.80;;;;;;;;;;5016979;28;20249;-74
2023/08/19 13:38:35;;;;;;;7.30;3.75;;;29.30;99.90;;;;;;5052122;28;20237;-74
2023/08/19 13:41:19;;;;;;;6.35;3.97;;;29.30;99.90;;;;;;5050872;28;20266;-74
2023/08/19 13:44:04;;;;;;;7.13;4.28;;;29.30;99.90;;;;;;5039866;28;20191;-74
2023/08/19 13:46:48;;;;;;;6.60;3.85;;;29.20;99.90;;;;;;5039403;28;20230;-73
2023/08/19 13:49:32;;;;;;;7.35;4.00;;;29.10;99.90;;;;;;5047768;28;20205;-74
2023/08/19 13:52:39;;;;;;;9.85;4.25;;;;;;;;;;5033688;28;20241;-75
2023/08/19 13:55:24;;;;;;;5.35;3.83;;;;;;;;;;5041766;28;20207;-74
2023/08/19 13:58:09;;;;;;;6.18;4.35;;;;;;;;;;5057435;28;20252;-73
2023/08/19 14:00:56;;;;;;;7.20;4.78;;;28.90;99.90;;;;;;5050787;28;20195;-73
2023/08/19 14:03:40;;;;;;;6.93;4.70;;;28.80;99.90;;;;;;5032054;28;20182;-75
2023/08/19 14:06:25;;;;;;;5.78;4.63;;;;;;;;;;5034812;28;20219;-74
2023/08/19 14:09:09;;;;;;;6.80;4.20;;;28.50;99.90;;;;;;5042631;28;20258;-74
2023/08/19 14:11:53;;;;;;;9.85;4.50;;;28.70;99.90;;;;;;5037697;28;20214;-75
2023/08/19 14:14:37;;;;;;;10.98;5.13;;;28.70;99.90;;;;;;5030519;28;20300;-75
2023/08/19 14:17:22;;;;;;;8.50;5.13;;;;;;;;;;5030175;28;20306;-76
2023/08/19 14:20:11;;;;;;;7.25;4.60;;;28.40;99.90;;;;;;5047733;28;20182;-74
2023/08/19 14:22:55;;;;;;;13.80;5.78;;;;;;;;;;5050720;28;20218;-75
2023/08/19 14:25:40;;;;;;;5.80;4.90;;;;;;;;;;5052324;28;20263;-75
2023/08/19 14:28:25;;;;;;;7.28;5.50;;;;;;;;;;5034188;28;20245;-75